Time;durP1;ratioP1;P1;durP2;ratioP2;P2;SDS_P1;SDS_P2;PMS_P1;PMS_P2;Temp;Humidity;BMP_temperature;BMP_pressure;BME280_temperature;BME280_humidity;BME280_pressure;Samples;Min_cycle;Max_cycle;Signal;HPM_P1;HPM_P2
2022/07/09 16:07:07;;;;;;;11.90;5.43;;;;;;;21.45;58.90;102995.00;7405431;19;20325;-75
2022/07/09 16:09:37;;;;;;;15.40;7.28;;;;;;;21.82;58.44;102998.63;7402066;19;20821;-75
2022/07/09 16:14:50;;;;;;;15.23;9.77;;;;;;;21.36;58.60;102983.41;7404075;19;20022;-75
2022/07/09 16:17:23;;;;;;;16.48;8.75;;;;;;;21.02;59.86;102983.28;7401453;19;20361;-76
2022/07/09 16:19:53;;;;;;;17.55;9.80;;;;;;;20.94;60.57;102989.47;7406248;19;20026;-75
2022/07/09 16:22:25;;;;;;;22.63;12.00;;;;;;;20.78;59.73;102981.41;7404097;19;20040;-74
2022/07/09 16:24:56;;;;;;;9.03;3.90;;;;;;;21.71;58.14;102972.78;7404578;19;20099;-74
2022/07/09 16:27:26;;;;;;;13.18;5.85;;;;;;;21.71;56.66;102979.03;7403727;19;20018;-73
2022/07/09 16:29:56;;;;;;;9.30;3.53;;;;;;;21.24;56.40;102996.72;7402294;19;20043;-75
2022/07/09 16:32:32;;;;;;;8.88;3.75;;;;;;;20.65;58.32;102989.34;7409634;19;20021;-74
2022/07/09 16:35:02;;;;;;;10.10;4.20;;;;;;;20.37;59.19;102997.13;7402875;19;20564;-76
2022/07/09 16:37:35;;;;;;;10.20;4.45;;;;;;;20.76;59.28;102983.19;7234109;19;20088;-75
2022/07/09 16:40:07;;;;;;;17.15;9.18;;;;;;;21.14;57.61;102974.41;7378230;19;20069;-75
2022/07/09 16:42:37;;;;;;;7.85;3.75;;;;;;;21.40;57.23;102977.19;7407826;19;20022;-75
2022/07/09 16:45:09;;;;;;;5.97;2.70;;;;;;;21.11;58.17;102985.06;7407315;19;20057;-75
2022/07/09 16:47:39;;;;;;;8.75;3.45;;;;;;;20.53;59.51;102985.72;7409259;19;20022;-74
2022/07/09 16:50:10;;;;;;;10.75;3.13;;;;;;;20.70;59.10;102982.25;7408603;19;20018;-75
2022/07/09 16:52:42;;;;;;;7.05;2.92;;;;;;;20.10;59.28;102981.81;7396373;19;20010;-73
2022/07/09 16:55:12;;;;;;;8.73;3.30;;;;;;;20.70;59.11;102983.16;7398166;19;20086;-75
2022/07/09 16:57:42;;;;;;;7.75;2.67;;;;;;;21.18;57.61;102981.53;7399510;19;20637;-76
2022/07/09 17:00:13;;;;;;;5.30;2.92;;;;;;;21.80;56.17;102984.38;7401006;19;20386;-76
2022/07/09 17:02:45;;;;;;;8.50;3.28;;;;;;;21.70;56.23;102979.03;7407624;19;20040;-77
2022/07/09 17:05:15;;;;;;;8.30;2.60;;;;;;;20.92;55.15;102991.22;7399561;19;20107;-75
2022/07/09 17:07:49;;;;;;;6.70;2.85;;;;;;;20.98;54.91;102989.47;7402245;19;20024;-73
2022/07/09 17:10:19;;;;;;;8.82;2.95;;;;;;;20.66;55.74;102992.00;7399915;19;20031;-74
2022/07/09 17:12:49;;;;;;;9.18;2.70;;;;;;;20.19;56.37;102986.34;7407403;19;20002;-74
2022/07/09 17:15:21;;;;;;;6.53;2.42;;;;;;;20.22;56.96;102984.59;7405124;19;20021;-74
2022/07/09 17:17:51;;;;;;;9.40;3.40;;;;;;;20.74;56.84;102976.94;7383560;19;20077;-73
2022/07/09 17:20:21;;;;;;;6.25;2.70;;;;;;;21.02;55.27;102985.94;7377646;19;20022;-72
2022/07/09 17:22:54;;;;;;;6.82;2.88;;;;;;;21.42;55.08;102980.75;7377804;19;20480;-75
2022/07/09 17:25:25;;;;;;;7.28;3.28;;;;;;;21.67;54.06;102989.72;7378590;19;20527;-75
2022/07/09 17:27:55;;;;;;;9.20;2.83;;;;;;;21.03;56.11;102978.81;7374995;19;20011;-76
2022/07/09 17:30:26;;;;;;;8.60;3.17;;;;;;;20.94;55.67;102995.69;7369228;19;20010;-75
2022/07/09 17:32:58;;;;;;;10.75;2.80;;;;;;;20.42;57.37;102986.53;7374114;19;20118;-76
2022/07/09 17:35:29;;;;;;;9.80;2.70;;;;;;;20.26;58.19;102988.16;7378474;19;20007;-76
2022/07/09 17:38:02;;;;;;;7.68;2.60;;;;;;;19.96;58.75;103003.91;7380819;19;20275;-75
2022/07/09 17:40:32;;;;;;;6.65;2.70;;;;;;;19.48;59.65;103006.09;7379384;19;20018;-77
2022/07/09 17:43:02;;;;;;;5.45;2.65;;;;;;;19.06;61.83;102998.50;7377847;19;20011;-76
2022/07/09 17:45:32;;;;;;;10.50;2.70;;;;;;;19.06;62.04;103001.16;7373761;19;20014;-75
2022/07/09 17:48:03;;;;;;;8.38;3.22;;;;;;;19.20;62.93;103006.66;7375576;19;20011;-74
2022/07/09 17:50:32;;;;;;;10.93;3.00;;;;;;;19.43;62.06;103004.25;7378628;19;20014;-76
2022/07/09 17:53:05;;;;;;;8.52;3.10;;;;;;;19.58;60.83;102984.06;7372725;19;20117;-75
2022/07/09 17:55:35;;;;;;;8.77;2.70;;;;;;;19.68;60.73;103002.78;7377903;19;20408;-77
2022/07/09 17:58:08;;;;;;;6.90;2.60;;;;;;;20.24;59.27;102990.81;7374615;19;20064;-76
2022/07/09 18:00:41;;;;;;;7.93;3.10;;;;;;;20.53;58.20;102991.06;7376359;19;20006;-76
2022/07/09 18:03:12;;;;;;;8.57;2.95;;;;;;;20.43;56.45;102983.88;7379229;19;20017;-74
2022/07/09 18:05:42;;;;;;;7.85;2.65;;;;;;;20.29;57.51;102998.84;7378651;19;20140;-74
2022/07/09 18:08:15;;;;;;;8.15;2.90;;;;;;;19.77;59.62;103003.72;7378294;19;20041;-75
2022/07/09 18:10:46;;;;;;;7.85;2.60;;;;;;;19.79;59.28;102994.00;7379237;19;20018;-75
2022/07/09 18:13:17;;;;;;;7.60;2.47;;;;;;;19.67;59.67;102993.91;7380972;19;20025;-74
2022/07/09 18:15:47;;;;;;;7.68;2.60;;;;;;;19.15;61.41;103001.28;7379498;19;20279;-75
2022/07/09 18:18:17;;;;;;;10.40;2.70;;;;;;;18.89;62.13;103014.25;7379558;19;20028;-75
2022/07/09 18:20:48;;;;;;;10.00;3.83;;;;;;;18.69;62.15;103006.91;7377988;19;20014;-76
2022/07/09 18:23:22;;;;;;;8.77;3.08;;;;;;;19.14;61.95;103007.47;7378077;19;20030;-75
2022/07/09 18:25:53;;;;;;;7.97;2.63;;;;;;;19.44;60.51;103000.72;7380401;19;20153;-73
2022/07/09 18:28:24;;;;;;;5.30;2.47;;;;;;;18.94;62.93;103003.66;7379268;19;20019;-73
2022/07/09 18:30:54;;;;;;;10.88;3.58;;;;;;;18.78;63.89;103001.69;7373549;19;20535;-74
2022/07/09 18:33:24;;;;;;;8.77;2.80;;;;;;;19.24;62.25;103003.16;7381530;19;20007;-74
2022/07/09 18:35:54;;;;;;;7.93;2.70;;;;;;;18.86;63.35;103008.88;7375072;19;20020;-74
2022/07/09 18:38:27;;;;;;;12.25;2.92;;;;;;;18.27;65.79;103005.34;7372965;19;20086;-74
2022/07/09 18:40:57;;;;;;;7.22;2.38;;;;;;;18.56;64.64;103001.38;7375568;19;20022;-73
2022/07/09 18:43:28;;;;;;;8.45;2.70;;;;;;;18.28;66.26;103004.47;7370755;19;20014;-74
2022/07/09 18:45:58;;;;;;;8.02;2.88;;;;;;;18.33;66.60;103001.91;7375474;19;20545;-73
2022/07/09 18:48:28;;;;;;;6.50;2.72;;;;;;;18.79;66.55;102998.16;7379686;19;20014;-74
2022/07/09 18:50:57;;;;;;;4.13;2.30;;;;;;;18.80;66.08;103002.59;7374851;19;20018;-76
2022/07/09 18:53:30;;;;;;;4.45;2.15;;;;;;;18.94;64.44;103001.91;7371305;19;20011;-75
2022/07/09 18:56:03;;;;;;;5.80;2.60;;;;;;;18.56;64.25;103001.38;7377208;19;20018;-75
2022/07/09 18:58:33;;;;;;;5.50;2.40;;;;;;;18.29;64.75;103007.16;7368828;19;20136;-75
2022/07/09 19:01:04;;;;;;;7.20;2.58;;;;;;;18.01;67.12;103014.66;7377268;19;20347;-75
2022/07/09 19:03:34;;;;;;;6.63;2.70;;;;;;;17.84;67.65;103009.03;7376395;19;20011;-75
2022/07/09 19:06:04;;;;;;;8.35;2.90;;;;;;;17.52;68.68;103008.44;7375105;19;20402;-74
2022/07/09 19:08:36;;;;;;;7.82;2.85;;;;;;;17.71;68.86;103015.88;7378022;19;20007;-75
2022/07/09 19:11:07;;;;;;;8.90;2.83;;;;;;;17.83;68.46;103012.56;7377774;19;20679;-75
2022/07/09 19:13:37;;;;;;;8.05;2.40;;;;;;;17.67;69.21;103014.09;7376158;19;20018;-75
2022/07/09 19:16:08;;;;;;;7.75;2.38;;;;;;;17.54;69.32;103023.53;7378125;19;20090;-74
2022/07/09 19:18:39;;;;;;;8.40;2.70;;;;;;;17.53;69.57;103024.41;7375285;19;20099;-74
2022/07/09 19:21:11;;;;;;;10.52;2.90;;;;;;;17.48;70.29;103022.53;7377268;19;20010;-74
2022/07/09 19:23:46;;;;;;;9.65;3.78;;;;;;;17.35;70.80;103021.38;7376110;19;20444;-74
2022/07/09 19:26:17;;;;;;;7.13;2.85;;;;;;;17.21;70.95;103018.44;7376211;19;20481;-75
2022/07/09 19:28:47;;;;;;;7.22;2.63;;;;;;;16.98;72.27;103017.06;7374184;19;20466;-74
2022/07/09 19:34:02;;;;;;;5.22;2.22;;;;;;;16.97;72.62;103025.88;7373289;19;20474;-73
2022/07/09 19:36:34;;;;;;;7.70;3.13;;;;;;;16.86;72.20;103040.66;7376263;19;20487;-74
2022/07/09 19:39:07;;;;;;;7.95;2.70;;;;;;;16.80;73.54;103043.16;7375582;19;20528;-75
2022/07/09 19:41:37;;;;;;;7.65;3.13;;;;;;;16.84;72.79;103043.28;7371927;19;20047;-76
2022/07/09 19:44:11;;;;;;;5.10;2.30;;;;;;;16.52;73.97;103046.94;7376842;19;20063;-75
2022/07/09 19:46:43;;;;;;;;;;;;;;;16.63;73.83;103051.63;7376644;19;20028;-76
2022/07/09 19:49:13;;;;;;;4.40;2.28;;;;;;;16.55;74.54;103049.66;7371252;19;19911;-76
2022/07/09 19:51:43;;;;;;;6.93;2.45;;;;;;;16.40;75.92;103044.00;7372408;19;20021;-77
2022/07/09 19:54:16;;;;;;;7.60;2.63;;;;;;;16.36;77.11;103043.03;7367964;19;20463;-76
2022/07/09 19:56:46;;;;;;;9.43;2.53;;;;;;;16.47;77.08;103056.53;7370865;19;20007;-75
2022/07/09 19:59:16;;;;;;;8.82;2.60;;;;;;;16.21;77.56;103053.22;7371281;19;20010;-75
2022/07/09 20:01:46;;;;;;;6.30;2.42;;;;;;;16.16;78.89;103054.88;7372254;19;20044;-76
2022/07/09 20:04:16;;;;;;;5.65;2.28;;;;;;;16.17;78.71;103057.56;7371054;19;20019;-75
2022/07/09 20:06:46;;;;;;;8.63;3.20;;;;;;;16.13;77.65;103062.72;7368628;19;20118;-76
2022/07/09 20:09:19;;;;;;;5.72;2.50;;;;;;;16.12;76.63;103066.22;7373290;19;20014;-75
2022/07/09 20:11:50;;;;;;;6.10;2.47;;;;;;;16.09;75.52;103067.06;7371217;19;20006;-78
2022/07/09 20:14:20;;;;;;;6.60;2.35;;;;;;;16.11;74.01;103067.97;7374113;19;20048;-79
2022/07/09 20:16:50;;;;;;;4.90;2.10;;;;;;;16.05;74.43;103067.81;7373419;19;20011;-78
2022/07/09 20:19:20;;;;;;;3.15;2.30;;;;;;;15.98;74.40;103071.16;7368607;19;20027;-78
2022/07/09 20:21:51;;;;;;;4.93;2.28;;;;;;;15.96;74.53;103068.47;7371078;19;20036;-80
2022/07/09 20:24:23;;;;;;;6.07;2.30;;;;;;;15.84;75.16;103061.97;7368147;19;20286;-78
2022/07/09 20:26:53;;;;;;;6.75;2.40;;;;;;;15.80;76.06;103062.72;7371567;19;20523;-75
2022/07/09 20:29:24;;;;;;;7.28;2.20;;;;;;;15.80;76.12;103070.66;7369615;19;20194;-75
2022/07/09 20:31:53;;;;;;;8.55;2.33;;;;;;;15.72;77.45;103065.16;7368898;19;20273;-75
2022/07/09 20:34:23;;;;;;;6.57;2.17;;;;;;;15.74;77.92;103060.81;7369712;19;20344;-76
2022/07/09 20:36:55;;;;;;;5.95;2.20;;;;;;;15.71;77.79;103071.31;7367966;19;20053;-74
2022/07/09 20:39:28;;;;;;;8.13;2.58;;;;;;;15.60;78.55;103064.88;7370583;19;20035;-75
2022/07/09 20:41:58;;;;;;;6.60;2.75;;;;;;;15.55;78.71;103058.50;7371573;19;20599;-74
2022/07/09 20:44:28;;;;;;;8.40;3.40;;;;;;;15.57;78.95;103062.13;7371723;19;20115;-76
2022/07/09 20:46:58;;;;;;;20.00;2.80;;;;;;;15.54;79.95;103067.31;7371811;19;20022;-76
2022/07/09 20:49:32;;;;;;;8.07;2.90;;;;;;;15.55;79.61;103069.09;7371628;19;20050;-74
2022/07/09 20:52:02;;;;;;;6.20;2.33;;;;;;;15.47;81.22;103060.03;7368274;19;20007;-75
2022/07/09 20:54:34;;;;;;;8.77;3.40;;;;;;;15.41;81.35;103062.50;7375805;19;20618;-75
2022/07/09 20:57:07;;;;;;;8.15;2.25;;;;;;;15.35;82.30;103064.13;7378410;19;20022;-77
2022/07/09 20:59:37;;;;;;;7.75;2.60;;;;;;;15.34;82.79;103064.97;7370652;19;20034;-76
2022/07/09 21:02:07;;;;;;;10.98;2.65;;;;;;;15.26;83.41;103077.09;7379653;19;20014;-76
2022/07/09 21:04:37;;;;;;;5.10;2.10;;;;;;;15.25;83.56;103064.72;7377222;19;20259;-76
2022/07/09 21:07:08;;;;;;;7.65;2.33;;;;;;;15.18;84.18;103062.75;7376209;19;20019;-76
2022/07/09 21:09:40;;;;;;;7.30;2.33;;;;;;;15.15;84.84;103054.72;7374336;19;20014;-75
2022/07/09 21:12:10;;;;;;;7.45;2.65;;;;;;;15.14;84.61;103050.28;7373293;19;20014;-75
2022/07/09 21:14:43;;;;;;;8.00;2.30;;;;;;;15.16;84.19;103053.88;7375089;19;20011;-76
2022/07/09 21:19:56;;;;;;;6.97;2.40;;;;;;;15.08;83.45;103044.81;7373785;19;20018;-76
2022/07/09 21:22:30;;;;;;;7.45;2.35;;;;;;;15.04;83.87;103046.47;7373109;19;20243;-75
2022/07/09 21:25:04;;;;;;;8.38;2.85;;;;;;;15.03;84.16;103057.00;7373795;19;20014;-75
2022/07/09 21:27:34;;;;;;;4.78;2.17;;;;;;;14.96;84.84;103052.38;7372568;19;20029;-76
2022/07/09 21:30:08;;;;;;;6.78;2.15;;;;;;;14.91;85.10;103053.97;7373603;19;20356;-76
2022/07/09 21:32:38;;;;;;;7.65;2.45;;;;;;;14.89;84.99;103055.69;7376946;19;20023;-75
2022/07/09 21:35:10;;;;;;;5.35;2.00;;;;;;;14.86;85.29;103052.94;7378304;19;20078;-75
2022/07/09 21:37:40;;;;;;;5.35;2.20;;;;;;;14.80;86.53;103053.66;7375803;19;20021;-75
2022/07/09 21:40:16;;;;;;;8.43;2.72;;;;;;;14.81;86.28;103054.53;7373039;19;20014;-77
2022/07/09 21:42:46;;;;;;;5.22;2.42;;;;;;;14.77;86.56;103045.63;7378478;19;20007;-75
2022/07/09 21:45:16;;;;;;;5.55;2.30;;;;;;;14.72;86.58;103042.84;7375895;19;20451;-75
2022/07/09 21:47:46;;;;;;;5.97;2.40;;;;;;;14.69;87.21;103048.03;7378556;19;20007;-77
2022/07/09 21:50:20;;;;;;;5.30;2.42;;;;;;;14.68;87.70;103043.59;7378431;19;20040;-75
2022/07/09 21:52:50;;;;;;;5.57;2.45;;;;;;;14.69;87.30;103040.09;7374538;19;20044;-77
2022/07/09 21:55:23;;;;;;;8.80;2.78;;;;;;;14.64;88.01;103039.06;7376836;19;20042;-76
2022/07/09 21:57:54;;;;;;;7.73;2.47;;;;;;;14.61;88.73;103036.34;7379447;19;20025;-77
2022/07/09 22:00:44;;;;;;;8.90;2.58;;;;;;;14.58;89.54;103040.63;7380125;19;20268;-77
2022/07/09 22:03:14;;;;;;;7.05;2.63;;;;;;;14.56;89.43;103040.56;7378665;19;20003;-76
2022/07/09 22:05:44;;;;;;;6.65;2.75;;;;;;;14.50;90.82;103040.41;7378070;19;20011;-74
2022/07/09 22:08:20;;;;;;;8.70;2.90;;;;;;;14.51;90.53;103036.03;7375627;19;20507;-75
2022/07/09 22:10:53;;;;;;;6.93;2.63;;;;;;;14.43;92.07;103035.78;7377053;19;20016;-75
2022/07/09 22:13:23;;;;;;;4.85;2.40;;;;;;;14.42;93.09;103033.09;7380930;19;20014;-76
2022/07/09 22:15:55;;;;;;;7.80;2.88;;;;;;;14.42;93.09;103039.25;7378494;19;20046;-76
2022/07/09 22:18:25;;;;;;;8.63;2.50;;;;;;;14.40;93.41;103043.56;7381513;19;20043;-76
2022/07/09 22:20:55;;;;;;;8.48;2.80;;;;;;;14.38;93.95;103038.22;7374052;19;20490;-75
2022/07/09 22:23:25;;;;;;;6.60;2.70;;;;;;;14.31;94.59;103032.69;7379366;19;20492;-75
2022/07/09 22:25:58;;;;;;;7.95;2.67;;;;;;;14.33;94.49;103042.47;7377165;19;20018;-74
2022/07/09 22:28:28;;;;;;;4.13;2.65;;;;;;;14.30;95.13;103045.00;7377956;19;20480;-75
2022/07/09 22:30:58;;;;;;;9.70;2.83;;;;;;;14.26;95.49;103036.94;7374470;19;20018;-75
2022/07/09 22:33:28;;;;;;;9.60;3.03;;;;;;;14.21;96.09;103038.53;7376023;19;20010;-75
2022/07/09 22:35:59;;;;;;;8.13;2.60;;;;;;;14.19;96.57;103032.28;7376903;19;20090;-75
2022/07/09 22:38:29;;;;;;;5.97;2.53;;;;;;;14.17;96.67;103026.97;7376814;19;20480;-75
2022/07/09 22:41:03;;;;;;;7.18;2.83;;;;;;;14.16;97.28;103029.56;7379939;19;20077;-76
2022/07/09 22:43:34;;;;;;;10.00;4.25;;;;;;;14.10;97.75;103032.00;7377334;19;20014;-74
2022/07/09 22:46:05;;;;;;;6.22;2.92;;;;;;;14.08;98.01;103022.28;7378084;19;20011;-75
2022/07/09 22:48:38;;;;;;;6.50;3.00;;;;;;;14.06;97.98;103021.34;7379360;19;20017;-75
2022/07/09 22:51:09;;;;;;;6.57;2.40;;;;;;;14.06;97.42;103021.34;7378821;19;20017;-75
2022/07/09 22:53:40;;;;;;;7.40;2.80;;;;;;;14.00;98.63;103012.31;7374663;19;20014;-74
2022/07/09 22:56:12;;;;;;;8.48;2.80;;;;;;;13.99;99.20;103016.69;7377040;19;20031;-75
2022/07/09 22:58:45;;;;;;;6.93;2.58;;;;;;;14.00;98.92;103015.84;7379346;19;20041;-75
2022/07/09 23:01:15;;;;;;;6.55;2.40;;;;;;;14.00;98.48;103018.50;7379410;19;20010;-77
2022/07/09 23:03:45;;;;;;;7.13;2.42;;;;;;;13.95;98.98;103012.16;7374318;19;20086;-76
2022/07/09 23:06:15;;;;;;;7.53;2.80;;;;;;;13.91;99.74;103012.91;7376869;19;20017;-76
2022/07/09 23:08:55;;;;;;;7.18;2.50;;;;;;;13.90;100.00;103015.47;7378881;19;20020;-76
2022/07/09 23:11:29;;;;;;;4.97;2.40;;;;;;;13.87;100.00;103010.09;7379849;19;20511;-76
2022/07/09 23:14:00;;;;;;;5.78;2.58;;;;;;;13.84;100.00;103005.63;7376907;19;20086;-76
2022/07/09 23:16:30;;;;;;;6.55;2.60;;;;;;;13.81;100.00;103010.78;7374478;19;20640;-76
2022/07/09 23:19:03;;;;;;;5.55;2.47;;;;;;;13.80;100.00;103019.53;7375059;19;20026;-76
2022/07/09 23:21:33;;;;;;;5.38;2.63;;;;;;;13.78;100.00;103007.16;7375555;19;20291;-76
2022/07/09 23:24:04;;;;;;;3.65;2.35;;;;;;;13.74;100.00;103009.69;7370606;19;20043;-76
2022/07/09 23:26:37;;;;;;;5.80;2.70;;;;;;;13.73;100.00;103014.91;7377193;19;20035;-76
2022/07/09 23:29:07;;;;;;;6.03;2.70;;;;;;;13.74;100.00;103014.06;7373664;19;20015;-75
2022/07/09 23:31:37;;;;;;;7.72;2.63;;;;;;;13.68;100.00;103011.22;7370699;19;20717;-76
2022/07/09 23:34:08;;;;;;;6.80;3.10;;;;;;;13.68;100.00;103014.75;7373658;19;20014;-75
2022/07/09 23:36:38;;;;;;;7.45;3.13;;;;;;;13.66;100.00;103016.44;7374074;19;20668;-75
2022/07/09 23:39:08;;;;;;;8.48;3.20;;;;;;;13.62;100.00;103008.34;7374405;19;20010;-75
2022/07/09 23:41:41;;;;;;;8.60;3.00;;;;;;;13.64;100.00;103006.66;7372965;19;20086;-76
2022/07/09 23:44:11;;;;;;;10.07;3.30;;;;;;;13.61;100.00;103006.56;7373770;19;20010;-75
2022/07/09 23:46:43;;;;;;;6.40;2.85;;;;;;;13.63;100.00;103007.50;7370336;19;20031;-76
2022/07/09 23:49:14;;;;;;;9.98;3.25;;;;;;;13.58;100.00;103004.72;7374494;19;20046;-75
2022/07/09 23:51:44;;;;;;;7.78;3.97;;;;;;;13.57;100.00;103007.28;7370471;19;20023;-75
2022/07/09 23:54:14;;;;;;;7.78;2.83;;;;;;;13.56;100.00;102998.50;7367022;19;20115;-77
2022/07/09 23:56:47;;;;;;;7.75;3.05;;;;;;;13.55;100.00;102990.53;7372513;19;20015;-76
2022/07/09 23:59:17;;;;;;;7.05;2.88;;;;;;;13.51;100.00;102997.47;7371875;19;20015;-76
